Time;durP1;ratioP1;P1;durP2;ratioP2;P2;SDS_P1;SDS_P2;PMS_P1;PMS_P2;Temp;Humidity;BMP_temperature;BMP_pressure;BME280_temperature;BME280_humidity;BME280_pressure;Samples;Min_cycle;Max_cycle;Signal;HPM_P1;HPM_P2
2023/04/23 00:01:29;;;;;;;7.40;5.40;;;;;;;11.99;51.53;99311.38;107665;1253;72372;-38
2023/04/23 00:03:57;;;;;;;8.00;5.70;;;;;;;11.97;51.20;99307.94;107718;1251;68734;-38
2023/04/23 00:06:27;;;;;;;10.00;5.80;;;;;;;11.96;51.07;99311.34;107727;1251;73651;-38
2023/04/23 00:08:55;;;;;;;9.30;6.40;;;;;;;11.94;51.17;99313.89;107701;1251;61312;-38
2023/04/23 00:11:24;;;;;;;8.80;6.10;;;;;;;11.92;51.04;99313.55;107630;1251;61277;-38
2023/04/23 00:13:53;;;;;;;11.10;6.20;;;;;;;11.92;51.01;99316.95;107643;1251;71789;-38
2023/04/23 00:16:23;;;;;;;11.00;7.30;;;;;;;11.92;51.22;99316.41;107658;1251;66950;-38
2023/04/23 00:18:52;;;;;;;10.30;7.00;;;;;;;11.90;51.07;99316.31;107665;1253;71446;-38
2023/04/23 00:21:20;;;;;;;12.00;7.50;;;;;;;11.89;51.04;99315.68;107651;1251;61680;-38
2023/04/23 00:23:49;;;;;;;12.80;7.90;;;;;;;11.89;51.29;99319.26;107727;1251;59967;-38
2023/04/23 00:26:17;;;;;;;13.10;8.10;;;;;;;11.88;51.41;99316.90;107731;1251;73374;-38
2023/04/23 00:28:46;;;;;;;13.10;8.10;;;;;;;11.87;51.25;99316.89;107765;1251;67600;-39
2023/04/23 00:31:14;;;;;;;11.70;7.70;;;;;;;11.87;51.28;99319.29;107690;1251;73969;-39
2023/04/23 00:33:43;;;;;;;11.80;8.40;;;;;;;11.86;51.94;99321.70;107623;1251;60517;-38
2023/04/23 00:36:11;;;;;;;18.80;9.90;;;;;;;11.84;52.53;99326.17;107625;1251;61213;-38
2023/04/23 00:38:40;;;;;;;14.80;9.50;;;;;;;11.82;52.41;99328.08;107692;1256;75175;-38
2023/04/23 00:41:09;;;;;;;14.90;9.30;;;;;;;11.80;52.28;99324.88;107651;1251;68884;-38
2023/04/23 00:43:38;;;;;;;13.70;9.10;;;;;;;11.79;52.04;99321.42;107664;1251;72466;-39
2023/04/23 00:46:06;;;;;;;14.20;9.10;;;;;;;11.77;52.14;99323.20;107601;1251;61317;-39
2023/04/23 00:48:35;;;;;;;14.50;8.60;;;;;;;11.77;52.18;99321.80;107716;1251;61608;-39
2023/04/23 00:51:05;;;;;;;16.20;9.50;;;;;;;11.76;52.47;99320.08;107687;1251;74938;-39
2023/04/23 00:53:34;;;;;;;12.30;9.00;;;;;;;11.75;52.62;99323.27;107704;1251;69236;-38
2023/04/23 00:56:04;;;;;;;14.70;8.90;;;;;;;11.74;52.97;99324.73;107772;1253;74010;-39
2023/04/23 00:58:33;;;;;;;;;;;;;;;11.73;52.99;99321.52;107715;1251;61574;-39
2023/04/23 01:01:03;;;;;;;13.30;8.70;;;;;;;11.67;52.87;99321.33;107721;1251;60428;-38
2023/04/23 01:03:33;;;;;;;14.20;8.30;;;;;;;11.62;52.83;99325.84;107700;1251;74983;-39
2023/04/23 01:06:03;;;;;;;13.40;8.50;;;;;;;11.63;53.17;99325.15;107662;1253;69149;-39
2023/04/23 01:08:31;;;;;;;20.10;9.60;;;;;;;11.62;53.24;99326.48;107596;1251;73357;-39
2023/04/23 01:11:00;;;;;;;14.30;8.70;;;;;;;11.61;53.03;99322.19;107359;1251;61564;-39
2023/04/23 01:13:29;;;;;;;13.70;9.00;;;;;;;11.61;53.09;99321.64;107590;1251;60364;-39
2023/04/23 01:15:57;;;;;;;14.30;8.80;;;;;;;11.60;53.51;99319.84;107603;1251;75058;-39
2023/04/23 01:18:26;;;;;;;13.80;8.80;;;;;;;11.59;54.25;99319.42;107619;1253;69297;-39
2023/04/23 01:20:54;;;;;;;12.20;8.00;;;;;;;11.56;55.60;99320.88;107533;1253;73845;-38
2023/04/23 01:23:25;;;;;;;15.20;9.50;;;;;;;11.49;57.12;99321.63;107358;1253;61776;-39
2023/04/23 01:25:54;;;;;;;17.60;9.50;;;;;;;11.36;57.77;99324.15;107637;1253;60284;-39
2023/04/23 01:28:23;;;;;;;15.40;8.60;;;;;;;11.16;58.09;99316.39;107460;1253;75035;-39
2023/04/23 01:30:51;;;;;;;13.60;9.00;;;;;;;11.14;58.41;99328.14;107609;1253;69110;-38
2023/04/23 01:33:20;;;;;;;13.20;8.90;;;;;;;11.12;58.40;99329.91;107520;1253;73857;-39
2023/04/23 01:35:49;;;;;;;13.80;9.10;;;;;;;11.12;58.07;99330.59;107585;1257;60451;-39
2023/04/23 01:38:18;;;;;;;19.40;9.50;;;;;;;11.11;57.43;99334.52;107641;1252;60267;-39
2023/04/23 01:40:47;;;;;;;9.20;6.00;;;;;;;11.13;57.07;99336.34;107598;1253;75091;-39
2023/04/23 01:43:16;;;;;;;14.90;8.20;;;;;;;11.12;56.20;99334.25;107631;1253;69167;-38
2023/04/23 01:45:46;;;;;;;15.10;8.40;;;;;;;11.12;55.62;99333.23;107452;1253;73548;-38
2023/04/23 01:48:15;;;;;;;14.80;8.20;;;;;;;11.13;55.16;99332.08;107542;1253;61262;-39
2023/04/23 01:50:43;;;;;;;12.80;8.60;;;;;;;11.09;54.47;99325.12;107579;1253;61216;-39
2023/04/23 01:53:12;;;;;;;15.70;8.50;;;;;;;11.13;54.61;99332.62;107598;1253;75028;-38
2023/04/23 01:55:40;;;;;;;13.70;8.20;;;;;;;11.15;55.20;99331.65;107654;1253;69066;-38
2023/04/23 01:58:09;;;;;;;12.40;8.30;;;;;;;11.15;55.48;99329.79;107523;1252;73868;-38
2023/04/23 02:00:37;;;;;;;14.90;8.60;;;;;;;11.15;55.70;99332.35;107541;1253;61600;-38
2023/04/23 02:03:06;;;;;;;14.00;9.10;;;;;;;11.16;55.50;99328.33;107576;1253;62013;-38
2023/04/23 02:05:35;;;;;;;13.30;8.40;;;;;;;11.18;55.38;99332.92;107636;1253;75076;-38
2023/04/23 02:08:04;;;;;;;15.50;9.20;;;;;;;11.19;55.65;99336.44;107656;1257;67788;-38
2023/04/23 02:10:32;;;;;;;14.50;8.80;;;;;;;11.18;55.46;99332.78;107624;1253;74466;-38
2023/04/23 02:13:01;;;;;;;16.80;8.60;;;;;;;11.17;54.98;99337.59;107596;1257;61511;-38
2023/04/23 02:15:31;;;;;;;13.60;9.10;;;;;;;11.16;55.51;99336.94;107648;1253;60323;-38
2023/04/23 02:18:00;;;;;;;15.10;8.80;;;;;;;11.16;55.36;99335.22;107615;1253;73873;-38
2023/04/23 02:20:29;;;;;;;13.40;8.40;;;;;;;11.15;55.03;99335.45;107622;1253;69101;-38
2023/04/23 02:22:57;;;;;;;14.20;8.90;;;;;;;11.15;55.03;99340.50;107545;1252;73778;-37
2023/04/23 02:25:26;;;;;;;13.20;8.30;;;;;;;11.16;55.34;99344.54;107532;1256;61416;-38
2023/04/23 02:27:56;;;;;;;11.90;7.50;;;;;;;11.16;55.01;99345.01;107563;1252;61180;-38
2023/04/23 02:30:24;;;;;;;10.00;6.10;;;;;;;11.15;54.23;99343.20;107529;1253;74815;-38
2023/04/23 02:32:53;;;;;;;10.80;5.70;;;;;;;11.14;53.86;99341.70;107549;1253;69252;-38
2023/04/23 02:35:22;;;;;;;9.40;5.30;;;;;;;11.14;53.58;99340.08;107548;1253;73655;-38
2023/04/23 02:37:53;;;;;;;8.40;5.30;;;;;;;11.14;53.41;99341.87;107486;1253;61626;-38
2023/04/23 02:40:21;;;;;;;7.40;5.10;;;;;;;11.14;53.48;99345.36;107631;1257;61491;-39
2023/04/23 02:42:50;;;;;;;11.60;5.80;;;;;;;11.14;53.42;99345.45;107586;1253;73686;-39
2023/04/23 02:45:19;;;;;;;8.20;6.00;;;;;;;11.14;53.53;99348.15;107624;1253;68971;-39
2023/04/23 02:47:52;;;;;;;9.90;5.60;;;;;;;11.15;53.28;99345.22;107671;1253;73649;-38
2023/04/23 02:50:20;;;;;;;8.10;5.30;;;;;;;11.16;52.72;99340.27;107634;1255;60866;-39
2023/04/23 02:52:49;;;;;;;10.10;5.20;;;;;;;11.16;52.86;99341.35;107570;1253;60384;-38
2023/04/23 02:55:17;;;;;;;7.60;5.50;;;;;;;11.16;53.13;99343.91;107566;1253;74969;-38
2023/04/23 02:57:46;;;;;;;8.80;5.70;;;;;;;11.17;54.06;99346.89;107643;1253;69198;-39
2023/04/23 03:00:15;;;;;;;8.90;5.80;;;;;;;11.16;54.79;99345.17;107495;1253;73562;-38
2023/04/23 03:02:45;;;;;;;8.70;6.30;;;;;;;11.17;54.69;99346.66;107534;1257;61511;-38
2023/04/23 03:05:14;;;;;;;9.40;6.30;;;;;;;11.16;54.36;99346.86;107480;1253;61554;-39
2023/04/23 03:07:42;;;;;;;9.30;6.40;;;;;;;11.15;54.07;99347.77;107571;1253;74726;-38
2023/04/23 03:10:11;;;;;;;13.80;6.30;;;;;;;11.15;53.60;99350.25;107566;1253;69120;-39
2023/04/23 03:12:40;;;;;;;11.60;6.70;;;;;;;11.16;53.82;99351.35;107587;1253;73863;-39
2023/04/23 03:15:09;;;;;;;10.40;6.80;;;;;;;11.15;53.95;99352.73;107549;1253;61567;-38
2023/04/23 03:17:37;;;;;;;9.20;4.80;;;;;;;11.15;53.67;99353.59;107633;1257;60313;-39
2023/04/23 03:20:10;;;;;;;8.40;5.90;;;;;;;11.15;53.60;99351.81;107625;1253;74972;-38
2023/04/23 03:22:39;;;;;;;8.90;5.20;;;;;;;11.15;53.97;99352.27;107524;1253;68281;-38
2023/04/23 03:25:08;;;;;;;8.20;5.50;;;;;;;11.13;53.92;99354.80;107611;1253;73808;-39
2023/04/23 03:27:41;;;;;;;8.40;5.80;;;;;;;11.13;54.03;99360.98;107579;1252;60428;-39
2023/04/23 03:30:10;;;;;;;7.40;5.00;;;;;;;11.14;54.62;99367.85;107579;1253;61564;-39
2023/04/23 03:32:40;;;;;;;7.10;4.90;;;;;;;11.15;54.58;99370.80;107537;1254;74856;-39
2023/04/23 03:35:09;;;;;;;8.60;5.00;;;;;;;11.16;54.13;99373.21;107531;1252;67614;-39
2023/04/23 03:37:40;;;;;;;9.10;5.10;;;;;;;11.16;53.83;99372.68;107526;1256;73655;-39
2023/04/23 03:40:09;;;;;;;7.60;5.30;;;;;;;11.17;53.83;99373.31;107532;1253;61227;-39
2023/04/23 03:42:40;;;;;;;7.80;5.10;;;;;;;11.17;53.24;99374.80;107550;1253;61420;-39
2023/04/23 03:45:10;;;;;;;7.60;4.80;;;;;;;11.18;53.48;99373.02;107552;1253;74899;-39
2023/04/23 03:47:39;;;;;;;6.80;4.40;;;;;;;11.20;53.61;99372.29;107642;1253;67978;-39
2023/04/23 03:50:09;;;;;;;7.00;5.00;;;;;;;11.23;54.26;99381.94;107659;1253;73906;-39
2023/04/23 03:52:38;;;;;;;11.20;6.00;;;;;;;11.25;54.32;99383.60;107654;1253;61201;-39
2023/04/23 03:55:10;;;;;;;9.00;5.30;;;;;;;11.26;53.75;99381.99;107667;1253;61333;-39
2023/04/23 03:57:43;;;;;;;7.40;5.50;;;;;;;11.27;53.85;99386.80;107611;1252;73853;-39
2023/04/23 04:00:32;;;;;;;8.00;5.40;;;;;;;11.26;53.98;99385.09;107642;1252;68144;-39
2023/04/23 04:03:01;;;;;;;7.10;3.90;;;;;;;11.26;53.95;99389.05;107641;1253;74325;-39
2023/04/23 04:05:30;;;;;;;6.90;5.00;;;;;;;11.28;53.75;99392.97;107623;1253;61308;-39
2023/04/23 04:07:59;;;;;;;8.60;5.00;;;;;;;11.31;53.39;99391.14;107645;1253;61182;-39
2023/04/23 04:10:27;;;;;;;6.00;4.40;;;;;;;11.34;52.85;99396.09;107569;1253;74727;-39
2023/04/23 04:12:56;;;;;;;5.80;4.80;;;;;;;11.38;52.74;99397.60;107529;1253;69102;-39
2023/04/23 04:15:24;;;;;;;7.60;4.80;;;;;;;11.41;53.42;99399.23;107577;1254;72043;-39
2023/04/23 04:17:53;;;;;;;6.60;4.40;;;;;;;11.45;53.42;99397.81;107572;1253;61534;-39
2023/04/23 04:20:21;;;;;;;6.10;4.00;;;;;;;11.45;53.08;99401.38;107590;1257;61638;-39
2023/04/23 04:22:50;;;;;;;6.50;4.20;;;;;;;11.43;52.23;99396.30;107592;1253;75008;-39
2023/04/23 04:25:21;;;;;;;6.10;3.90;;;;;;;11.43;51.95;99399.86;107630;1254;68805;-39
2023/04/23 04:27:49;;;;;;;5.70;3.90;;;;;;;11.44;52.80;99404.62;107583;1253;73921;-39
2023/04/23 04:30:18;;;;;;;5.90;4.20;;;;;;;11.49;54.03;99408.26;107613;1253;61500;-39
2023/04/23 04:32:49;;;;;;;7.80;5.10;;;;;;;11.52;53.87;99421.34;107623;1253;61518;-39
2023/04/23 04:35:18;;;;;;;8.30;5.40;;;;;;;11.54;53.92;99421.21;107620;1257;73062;-39
2023/04/23 04:37:46;;;;;;;8.30;5.70;;;;;;;11.56;53.99;99417.70;107623;1253;69192;-39
2023/04/23 04:40:15;;;;;;;9.90;5.80;;;;;;;11.58;54.16;99419.11;106906;1253;1014775;-39
2023/04/23 04:42:45;;;;;;;10.00;5.50;;;;;;;11.61;54.58;99423.27;107626;1253;60539;-39
2023/04/23 04:45:14;;;;;;;13.30;6.00;;;;;;;11.64;54.40;99423.24;107555;1253;61560;-39
2023/04/23 04:47:43;;;;;;;8.90;5.30;;;;;;;11.62;54.45;99413.29;107526;1253;75076;-39
2023/04/23 04:50:11;;;;;;;9.00;5.80;;;;;;;11.71;54.16;99425.99;107534;1257;69104;-39
2023/04/23 04:52:40;;;;;;;10.70;5.50;;;;;;;11.76;54.36;99426.55;107562;1253;73726;-39
2023/04/23 04:55:08;;;;;;;8.70;4.90;;;;;;;11.80;54.23;99428.01;107615;1257;61576;-39
2023/04/23 04:57:38;;;;;;;5.30;3.60;;;;;;;11.84;53.91;99423.34;107625;1253;61546;-39
2023/04/23 05:00:23;;;;;;;8.10;5.30;;;;;;;11.90;54.01;99427.15;107628;1253;75026;-39
2023/04/23 05:05:41;;;;;;;;;;;;;;;12.04;54.16;99426.11;107653;1253;73980;-39
2023/04/23 05:08:11;;;;;;;6.80;4.40;;;;;;;12.05;54.09;99430.54;107624;1253;61482;-39
2023/04/23 05:10:39;;;;;;;6.90;4.70;;;;;;;12.08;53.76;99428.25;107664;1252;61247;-39
2023/04/23 05:13:07;;;;;;;12.70;4.20;;;;;;;12.16;53.33;99427.83;107610;1253;74225;-39
2023/04/23 05:15:36;;;;;;;7.70;4.30;;;;;;;12.24;52.68;99432.05;107642;1257;68787;-39
2023/04/23 05:18:05;;;;;;;7.40;3.70;;;;;;;12.32;51.92;99436.27;107629;1253;73865;-39
2023/04/23 05:20:34;;;;;;;6.00;3.70;;;;;;;12.39;51.61;99436.05;107702;1253;61545;-39
2023/04/23 05:23:02;;;;;;;5.70;3.70;;;;;;;12.48;51.26;99441.67;107563;1253;60511;-39
2023/04/23 05:25:33;;;;;;;6.40;3.00;;;;;;;12.58;50.82;99437.67;107595;1253;75124;-39
2023/04/23 05:28:01;;;;;;;4.50;3.40;;;;;;;12.69;50.63;99443.80;107540;1253;69190;-39
2023/04/23 05:30:31;;;;;;;5.20;3.40;;;;;;;12.74;49.50;99433.13;107643;1253;73848;-39
2023/04/23 05:32:59;;;;;;;6.00;3.70;;;;;;;12.89;48.50;99441.77;107606;1253;61595;-39
2023/04/23 05:35:28;;;;;;;5.50;3.80;;;;;;;12.96;47.41;99440.75;107651;1253;61290;-39
2023/04/23 05:37:56;;;;;;;7.20;3.60;;;;;;;13.03;46.96;99446.35;106841;1253;1003010;-39
2023/04/23 05:40:25;;;;;;;7.50;3.80;;;;;;;13.04;47.10;99436.16;107588;1253;67932;-39
2023/04/23 05:42:53;;;;;;;7.30;3.40;;;;;;;13.16;47.11;99444.41;107580;1253;73855;-39
2023/04/23 05:45:22;;;;;;;6.70;3.60;;;;;;;13.22;47.00;99445.16;107603;1253;61556;-39
2023/04/23 05:47:50;;;;;;;6.00;3.30;;;;;;;13.30;47.34;99446.88;107614;1253;61539;-39
2023/04/23 05:50:19;;;;;;;6.90;3.70;;;;;;;13.40;47.43;99452.95;107609;1253;75135;-39
2023/04/23 05:52:47;;;;;;;5.00;3.50;;;;;;;13.50;47.58;99457.17;107642;1253;68386;-39
2023/04/23 05:55:17;;;;;;;5.70;3.50;;;;;;;13.61;47.64;99457.71;107597;1253;73775;-39
2023/04/23 05:57:45;;;;;;;4.50;3.60;;;;;;;13.71;47.96;99461.06;107542;1253;61603;-38
2023/04/23 06:00:15;;;;;;;6.00;3.70;;;;;;;13.79;47.94;99461.98;107581;1253;61159;-38
2023/04/23 06:02:44;;;;;;;5.20;2.50;;;;;;;13.89;47.82;99463.54;107634;1253;73006;-38
2023/04/23 06:05:12;;;;;;;6.90;3.80;;;;;;;13.97;46.83;99460.64;107529;1253;69142;-39
2023/04/23 06:07:42;;;;;;;6.10;3.80;;;;;;;14.04;45.86;99464.81;107552;1254;73770;-38
2023/04/23 06:10:11;;;;;;;7.50;4.30;;;;;;;14.08;45.23;99463.44;107589;1253;61574;-38
2023/04/23 06:12:41;;;;;;;8.00;4.10;;;;;;;14.09;45.45;99463.69;107629;1253;60294;-39
2023/04/23 06:15:10;;;;;;;10.50;4.50;;;;;;;14.13;45.67;99467.05;107620;1253;75027;-39
2023/04/23 06:17:39;;;;;;;6.30;3.60;;;;;;;14.20;46.13;99464.83;107602;1254;69163;-38
2023/04/23 06:20:10;;;;;;;7.40;4.40;;;;;;;14.31;46.39;99470.13;107654;1253;71824;-39
2023/04/23 06:22:39;;;;;;;7.00;4.20;;;;;;;14.43;46.13;99469.42;107600;1253;60520;-39
2023/04/23 06:25:08;;;;;;;6.80;4.60;;;;;;;14.52;46.20;99473.30;107609;1253;61501;-39
2023/04/23 06:27:37;;;;;;;7.20;4.80;;;;;;;14.62;45.42;99474.74;107645;1253;74778;-39
2023/04/23 06:30:11;;;;;;;7.30;4.60;;;;;;;14.73;45.09;99476.12;107625;1257;68831;-39
2023/04/23 06:32:39;;;;;;;5.50;3.10;;;;;;;14.82;44.71;99480.83;107574;1253;73736;-39
2023/04/23 06:35:08;;;;;;;8.80;4.90;;;;;;;14.89;44.88;99482.02;107573;1253;59682;-39
2023/04/23 06:37:37;;;;;;;6.90;4.80;;;;;;;14.97;45.54;99480.48;107542;1253;60516;-39
2023/04/23 06:40:06;;;;;;;7.60;5.00;;;;;;;15.06;45.15;99483.31;107581;1253;74794;-39
2023/04/23 06:42:34;;;;;;;7.10;4.60;;;;;;;15.20;44.68;99480.62;107596;1253;68963;-39
2023/04/23 06:45:16;;;;;;;7.70;5.10;;;;;;;15.35;44.19;99483.84;107541;1253;73528;-39
2023/04/23 06:47:45;;;;;;;7.00;4.90;;;;;;;15.49;44.14;99482.55;107532;1256;60557;-39
2023/04/23 06:50:14;;;;;;;7.60;5.00;;;;;;;15.66;43.62;99486.73;107556;1253;61643;-39
2023/04/23 06:52:42;;;;;;;9.80;5.10;;;;;;;15.83;42.88;99482.49;107564;1253;73636;-39
2023/04/23 06:55:11;;;;;;;6.40;4.40;;;;;;;15.96;42.35;99481.72;107593;1253;68986;-39
2023/04/23 06:57:39;;;;;;;5.80;4.20;;;;;;;16.14;41.92;99478.56;107673;1253;72652;-39
2023/04/23 07:00:09;;;;;;;9.00;4.90;;;;;;;16.33;41.22;99474.14;107607;1253;61567;-39
2023/04/23 07:02:39;;;;;;;9.00;5.40;;;;;;;16.55;40.62;99474.57;107614;1253;61386;-39
2023/04/23 07:05:09;;;;;;;7.20;5.20;;;;;;;16.77;39.13;99473.40;107565;1253;74813;-39
2023/04/23 07:07:39;;;;;;;8.20;5.40;;;;;;;16.98;38.37;99472.21;107629;1257;69137;-38
2023/04/23 07:10:10;;;;;;;9.40;5.50;;;;;;;17.15;37.43;99472.97;107606;1254;73913;-38
2023/04/23 07:12:38;;;;;;;8.10;5.70;;;;;;;17.27;37.86;99477.29;107636;1254;61548;-38
2023/04/23 07:15:08;;;;;;;8.30;5.20;;;;;;;17.33;37.33;99480.05;107629;1254;61433;-39
2023/04/23 07:17:36;;;;;;;8.40;5.30;;;;;;;17.36;35.74;99480.74;107615;1253;72880;-39
2023/04/23 07:20:07;;;;;;;8.50;5.40;;;;;;;17.41;34.85;99480.64;107541;1253;69099;-39
2023/04/23 07:22:36;;;;;;;8.10;5.40;;;;;;;17.48;35.48;99484.02;107509;1253;73859;-39
2023/04/23 07:25:07;;;;;;;10.60;5.90;;;;;;;17.57;35.21;99483.19;107507;1253;61606;-39
2023/04/23 07:27:36;;;;;;;7.90;5.60;;;;;;;17.63;33.96;99480.75;107580;1253;61534;-38
2023/04/23 07:30:05;;;;;;;10.10;6.70;;;;;;;17.65;34.55;99480.49;107643;1253;75004;-38
2023/04/23 07:32:34;;;;;;;7.40;5.30;;;;;;;17.69;34.82;99484.84;107699;1253;68840;-38
2023/04/23 07:35:04;;;;;;;9.40;5.40;;;;;;;17.77;35.41;99480.38;107657;1257;73645;-38
2023/04/23 07:37:32;;;;;;;8.00;5.60;;;;;;;17.91;35.24;99479.95;107739;1252;60453;-39
2023/04/23 07:40:01;;;;;;;7.40;4.70;;;;;;;18.04;34.31;99476.08;107721;1253;61351;-38
2023/04/23 07:42:31;;;;;;;7.60;4.80;;;;;;;18.23;34.62;99478.63;107718;1253;76060;-38
2023/04/23 07:44:59;;;;;;;7.10;4.90;;;;;;;18.43;34.10;99481.94;107721;1255;69128;-38
2023/04/23 07:47:28;;;;;;;4.80;3.80;;;;;;;18.61;34.01;99480.13;107724;1253;73596;-38
2023/04/23 07:49:56;;;;;;;8.10;3.70;;;;;;;18.78;33.44;99475.76;107728;1256;61619;-38
2023/04/23 07:52:25;;;;;;;5.20;3.70;;;;;;;18.96;33.29;99479.23;107714;1252;61329;-38
2023/04/23 07:54:54;;;;;;;4.50;2.30;;;;;;;19.16;32.08;99475.64;107758;1251;74975;-38
2023/04/23 07:57:23;;;;;;;3.90;2.10;;;;;;;19.20;29.94;99477.87;107749;1256;69251;-38
2023/04/23 07:59:51;;;;;;;3.80;2.80;;;;;;;19.14;30.49;99475.05;107780;1255;73867;-38
2023/04/23 08:02:24;;;;;;;5.00;3.30;;;;;;;19.18;30.38;99473.11;107752;1254;61616;-38
2023/04/23 08:04:53;;;;;;;6.90;3.90;;;;;;;19.27;31.09;99471.09;107728;1256;60299;-38
2023/04/23 08:07:22;;;;;;;5.00;3.90;;;;;;;19.42;31.39;99468.91;107753;1253;75037;-38
2023/04/23 08:09:51;;;;;;;5.20;3.70;;;;;;;19.60;30.58;99462.68;107731;1253;69143;-38
2023/04/23 08:12:20;;;;;;;5.60;3.80;;;;;;;19.75;29.94;99460.23;107732;1254;72757;-39
2023/04/23 08:14:49;;;;;;;4.80;3.70;;;;;;;19.92;30.51;99456.25;107722;1255;60607;-39
2023/04/23 08:17:19;;;;;;;7.90;3.80;;;;;;;20.14;30.46;99452.48;107688;1255;60430;-39
2023/04/23 08:19:47;;;;;;;6.50;3.50;;;;;;;20.26;29.85;99446.19;107747;1254;74909;-39
2023/04/23 08:22:16;;;;;;;5.10;3.80;;;;;;;20.43;29.95;99444.88;107678;1255;69102;-39
2023/04/23 08:24:45;;;;;;;3.60;2.60;;;;;;;20.60;28.47;99443.11;107704;1254;73858;-39
2023/04/23 08:27:13;;;;;;;3.50;2.40;;;;;;;20.77;27.24;99443.39;107722;1255;61980;-39
2023/04/23 08:29:42;;;;;;;3.30;1.90;;;;;;;20.93;26.25;99449.67;107702;1254;60338;-38
2023/04/23 08:32:11;;;;;;;3.00;2.10;;;;;;;20.99;25.07;99449.29;107777;1253;73272;-38
2023/04/23 08:34:40;;;;;;;;;;;;;;;20.93;24.91;99447.07;107757;1253;67657;-38
2023/04/23 08:40:00;;;;;;;3.40;2.50;;;;;;;20.69;26.60;99445.38;104196;1295;600942;-39
2023/04/23 08:42:37;;;;;;;5.40;2.50;;;;;;;20.60;26.67;99450.66;106750;1267;61339;-39
2023/04/23 08:45:06;;;;;;;3.40;2.50;;;;;;;20.45;26.49;99453.72;106743;1266;61656;-39
2023/04/23 08:47:35;;;;;;;7.60;2.70;;;;;;;20.34;26.56;99454.23;106775;1271;72265;-39
2023/04/23 08:50:05;;;;;;;3.20;2.70;;;;;;;20.27;26.13;99450.27;106688;1267;69167;-39
2023/04/23 08:52:34;;;;;;;5.60;3.40;;;;;;;20.19;26.98;99453.70;106607;1267;174046;-40
2023/04/23 08:55:04;;;;;;;3.90;2.90;;;;;;;20.09;27.34;99450.61;106617;1264;61427;-39
2023/04/23 08:57:33;;;;;;;2.50;2.30;;;;;;;20.01;27.50;99448.39;106756;1264;60017;-39
2023/04/23 09:00:05;;;;;;;5.80;2.90;;;;;;;19.91;26.65;99451.23;106725;1269;73415;-39
2023/04/23 09:02:33;;;;;;;3.40;2.70;;;;;;;19.74;27.65;99449.80;106840;1267;69016;-39
2023/04/23 09:05:03;;;;;;;4.80;2.80;;;;;;;19.62;28.08;99451.66;106815;1264;73871;-39
2023/04/23 09:07:33;;;;;;;5.20;3.10;;;;;;;19.47;28.17;99451.41;106787;1264;60302;-39
2023/04/23 09:10:02;;;;;;;4.70;2.40;;;;;;;19.26;28.23;99449.04;106780;1264;60034;-39
2023/04/23 09:12:31;;;;;;;3.90;2.60;;;;;;;19.07;28.58;99447.74;106771;1269;74186;-39
2023/04/23 09:15:00;;;;;;;2.90;2.40;;;;;;;18.96;29.12;99446.33;106813;1269;68926;-39
2023/04/23 09:17:29;;;;;;;3.60;2.50;;;;;;;18.88;29.10;99446.52;106718;1264;73815;-39
2023/04/23 09:19:57;;;;;;;3.60;2.40;;;;;;;18.81;29.46;99442.30;106799;1270;61403;-39
2023/04/23 09:22:51;;;;;;;4.30;2.70;;;;;;;18.75;29.92;99440.73;106734;1264;61178;-39
2023/04/23 09:25:21;;;;;;;3.00;2.50;;;;;;;18.70;30.60;99440.08;106743;1268;74589;-39
2023/04/23 09:27:50;;;;;;;3.30;2.20;;;;;;;18.66;29.86;99441.30;106831;1264;67954;-39
2023/04/23 09:30:19;;;;;;;6.50;2.30;;;;;;;18.57;29.03;99420.00;106796;1264;73864;-39
2023/04/23 09:32:48;;;;;;;4.00;2.10;;;;;;;18.70;28.97;99433.80;106794;1264;61863;-39
2023/04/23 09:35:20;;;;;;;2.60;2.10;;;;;;;18.80;28.62;99437.75;106852;1264;60588;-38
2023/04/23 09:37:51;;;;;;;2.50;2.00;;;;;;;18.89;29.29;99436.38;106835;1264;73471;-38
2023/04/23 09:40:22;;;;;;;2.80;1.90;;;;;;;18.95;28.79;99438.09;106984;1260;69468;-38
2023/04/23 09:42:54;;;;;;;3.80;2.00;;;;;;;18.97;29.03;99436.80;107047;1261;73839;-39
2023/04/23 09:45:26;;;;;;;4.90;2.30;;;;;;;19.00;28.92;99436.92;106903;1260;60035;-39
2023/04/23 09:47:55;;;;;;;3.20;2.30;;;;;;;19.02;28.89;99435.02;106910;1266;61424;-38
2023/04/23 09:50:37;;;;;;;3.20;2.40;;;;;;;19.00;28.74;99433.08;106931;1260;73889;-38
2023/04/23 09:53:08;;;;;;;3.50;2.80;;;;;;;18.92;28.62;99433.11;106934;1263;68002;-38
2023/04/23 09:55:37;;;;;;;4.60;2.70;;;;;;;18.81;28.70;99434.60;106972;1264;73804;-38
2023/04/23 09:58:10;;;;;;;;;;;;;;;18.71;28.88;99434.81;107040;1261;60355;-38
2023/04/23 10:00:39;;;;;;;4.60;3.00;;;;;;;18.60;29.22;99430.95;106996;1261;61420;-38
2023/04/23 10:03:08;;;;;;;5.60;2.60;;;;;;;18.60;29.61;99436.52;106876;1263;73712;-38
2023/04/23 10:05:42;;;;;;;4.10;2.60;;;;;;;18.75;29.63;99438.76;107022;1261;69123;-38
2023/04/23 10:08:14;;;;;;;3.50;2.40;;;;;;;18.91;29.50;99437.05;106963;1263;73946;-38
2023/04/23 10:10:43;;;;;;;3.30;2.50;;;;;;;19.07;29.21;99439.02;107020;1261;61362;-38
2023/04/23 10:13:34;;;;;;;4.60;2.80;;;;;;;19.29;29.01;99432.91;106881;1261;61217;-39
2023/04/23 10:16:05;;;;;;;3.60;2.60;;;;;;;19.52;28.99;99435.39;106944;1263;74158;-39
2023/04/23 10:18:50;;;;;;;4.20;2.30;;;;;;;19.79;28.96;99435.11;106855;1263;68959;-38
2023/04/23 10:21:19;;;;;;;3.40;2.50;;;;;;;20.00;28.89;99433.87;106989;1265;72614;-38
2023/04/23 10:23:49;;;;;;;4.80;3.00;;;;;;;20.19;27.92;99435.23;107032;1261;61564;-38
2023/04/23 10:26:18;;;;;;;3.90;2.50;;;;;;;20.24;27.58;99435.60;106973;1265;61550;-39
2023/04/23 10:28:47;;;;;;;4.40;2.70;;;;;;;20.30;28.15;99428.98;107031;1266;73402;-38
2023/04/23 10:31:16;;;;;;;5.20;2.60;;;;;;;20.45;27.19;99423.99;107015;1266;67202;-38
2023/04/23 10:33:46;;;;;;;3.60;2.50;;;;;;;20.54;27.38;99422.92;107039;1266;73899;-38
2023/04/23 10:36:27;;;;;;;3.90;2.80;;;;;;;20.55;27.25;99425.20;106995;1260;61827;-38
2023/04/23 10:38:59;;;;;;;6.10;2.80;;;;;;;20.57;26.76;99422.95;107027;1265;59605;-38
2023/04/23 10:41:42;;;;;;;4.20;2.70;;;;;;;20.55;27.38;99421.18;106985;1263;74215;-38
2023/04/23 10:44:11;;;;;;;3.00;2.40;;;;;;;20.55;27.79;99421.20;106894;1266;69137;-38
2023/04/23 10:46:56;;;;;;;5.70;3.00;;;;;;;20.61;28.12;99422.87;106959;1263;72702;-38
2023/04/23 10:49:28;;;;;;;4.70;2.60;;;;;;;20.62;26.91;99417.41;106967;1263;61570;-38
2023/04/23 10:51:58;;;;;;;4.70;2.90;;;;;;;20.58;26.76;99420.72;106984;1266;61347;-38
2023/04/23 10:54:47;;;;;;;;;;;;;;;20.54;26.31;99416.63;106947;1265;73029;-38
2023/04/23 10:57:16;;;;;;;4.80;2.70;;;;;;;20.42;27.27;99411.92;106959;1263;68242;-38
2023/04/23 10:59:52;;;;;;;4.10;2.80;;;;;;;20.44;27.36;99409.37;106942;1264;74125;-39
2023/04/23 11:02:23;;;;;;;4.90;2.70;;;;;;;20.61;27.40;99412.25;106953;1261;59399;-38
2023/04/23 11:04:56;;;;;;;4.30;2.60;;;;;;;20.77;27.33;99407.48;106976;1264;62113;-38
2023/04/23 11:07:34;;;;;;;4.80;2.80;;;;;;;20.91;26.24;99410.10;106946;1266;73934;-38
2023/04/23 11:10:12;;;;;;;4.80;2.90;;;;;;;21.12;26.64;99406.78;106932;1265;69095;-38
2023/04/23 11:12:42;;;;;;;3.50;2.60;;;;;;;21.50;26.62;99410.17;106927;1262;72350;-39
2023/04/23 11:15:13;;;;;;;4.20;3.00;;;;;;;21.96;26.70;99406.09;106906;1263;60072;-38
2023/04/23 11:17:41;;;;;;;4.00;2.70;;;;;;;22.40;26.23;99405.98;106926;1266;59502;-39
2023/04/23 11:20:15;;;;;;;3.10;2.40;;;;;;;22.99;25.70;99400.45;106906;1262;74045;-38
2023/04/23 11:22:46;;;;;;;7.50;3.00;;;;;;;23.71;24.75;99404.85;106952;1260;69251;-38
2023/04/23 11:25:19;;;;;;;6.80;2.90;;;;;;;24.25;24.29;99401.56;106975;1263;73807;-38
2023/04/23 11:27:49;;;;;;;4.60;3.00;;;;;;;24.62;23.16;99397.36;106965;1261;61579;-39
2023/04/23 11:30:27;;;;;;;;;;;;;;;24.75;22.43;99395.30;107013;1265;60035;-39
2023/04/23 11:32:57;;;;;;;4.70;3.40;;;;;;;24.48;22.49;99402.14;106971;1261;74053;-39
2023/04/23 11:35:32;;;;;;;4.50;3.30;;;;;;;24.11;23.29;99398.10;107026;1261;66869;-39
2023/04/23 11:38:00;;;;;;;7.10;3.30;;;;;;;23.75;23.24;99401.89;106984;1264;73912;-39
2023/04/23 11:40:31;;;;;;;5.10;3.20;;;;;;;23.36;23.29;99406.63;106894;1264;61718;-39
2023/04/23 11:43:03;;;;;;;4.50;3.00;;;;;;;23.08;23.91;99402.05;107035;1260;61328;-39